sensor_id;sensor_type;location;lat;lon;timestamp;P1;durP1;ratioP1;P2;durP2;ratioP2
52586;SDS011;38480;52.724;6.436;2022-10-22T00:00:50;23.77;;;11.80;;
52586;SDS011;38480;52.724;6.436;2022-10-22T00:03:16;23.53;;;11.43;;
52586;SDS011;38480;52.724;6.436;2022-10-22T00:05:42;18.93;;;10.63;;
52586;SDS011;38480;52.724;6.436;2022-10-22T00:08:08;20.23;;;10.03;;
52586;SDS011;38480;52.724;6.436;2022-10-22T00:10:36;19.03;;;11.90;;
52586;SDS011;38480;52.724;6.436;2022-10-22T00:13:02;19.10;;;11.07;;
52586;SDS011;38480;52.724;6.436;2022-10-22T00:15:28;25.87;;;11.93;;
52586;SDS011;38480;52.724;6.436;2022-10-22T00:17:54;17.07;;;11.40;;
52586;SDS011;38480;52.724;6.436;2022-10-22T00:20:20;24.67;;;12.17;;
52586;SDS011;38480;52.724;6.436;2022-10-22T00:22:47;19.53;;;12.47;;
52586;SDS011;38480;52.724;6.436;2022-10-22T00:25:13;19.90;;;11.43;;
52586;SDS011;38480;52.724;6.436;2022-10-22T00:27:39;19.30;;;11.07;;
52586;SDS011;38480;52.724;6.436;2022-10-22T00:30:05;20.87;;;10.77;;
52586;SDS011;38480;52.724;6.436;2022-10-22T00:32:31;20.80;;;11.77;;
52586;SDS011;38480;52.724;6.436;2022-10-22T00:34:57;20.03;;;11.83;;
52586;SDS011;38480;52.724;6.436;2022-10-22T00:37:23;32.03;;;15.10;;
52586;SDS011;38480;52.724;6.436;2022-10-22T00:39:49;24.40;;;12.43;;
52586;SDS011;38480;52.724;6.436;2022-10-22T00:42:17;16.93;;;11.80;;
52586;SDS011;38480;52.724;6.436;2022-10-22T00:45:04;21.53;;;12.73;;
52586;SDS011;38480;52.724;6.436;2022-10-22T00:47:32;28.23;;;14.00;;
52586;SDS011;38480;52.724;6.436;2022-10-22T00:50:00;27.33;;;14.60;;
52586;SDS011;38480;52.724;6.436;2022-10-22T00:52:27;31.77;;;12.33;;
52586;SDS011;38480;52.724;6.436;2022-10-22T00:54:53;23.90;;;13.20;;
52586;SDS011;38480;52.724;6.436;2022-10-22T00:57:19;21.63;;;12.50;;
52586;SDS011;38480;52.724;6.436;2022-10-22T00:59:46;28.50;;;14.50;;
52586;SDS011;38480;52.724;6.436;2022-10-22T01:02:12;25.90;;;13.20;;
52586;SDS011;38480;52.724;6.436;2022-10-22T01:04:39;22.17;;;13.10;;
52586;SDS011;38480;52.724;6.436;2022-10-22T01:07:05;26.43;;;13.77;;
52586;SDS011;38480;52.724;6.436;2022-10-22T01:09:35;26.80;;;14.40;;
52586;SDS011;38480;52.724;6.436;2022-10-22T01:17:22;23.03;;;13.00;;
52586;SDS011;38480;52.724;6.436;2022-10-22T01:30:20;30.07;;;14.70;;
52586;SDS011;38480;52.724;6.436;2022-10-22T01:32:48;27.27;;;14.77;;
52586;SDS011;38480;52.724;6.436;2022-10-22T01:35:17;22.70;;;14.00;;
52586;SDS011;38480;52.724;6.436;2022-10-22T01:37:51;28.57;;;14.37;;
52586;SDS011;38480;52.724;6.436;2022-10-22T01:40:18;25.83;;;14.47;;
52586;SDS011;38480;52.724;6.436;2022-10-22T01:42:57;25.77;;;14.67;;
52586;SDS011;38480;52.724;6.436;2022-10-22T01:45:24;31.03;;;14.73;;
52586;SDS011;38480;52.724;6.436;2022-10-22T01:50:44;31.37;;;15.17;;
52586;SDS011;38480;52.724;6.436;2022-10-22T01:53:18;31.37;;;15.70;;
52586;SDS011;38480;52.724;6.436;2022-10-22T01:55:51;33.42;;;17.40;;
52586;SDS011;38480;52.724;6.436;2022-10-22T02:01:22;34.00;;;18.43;;
52586;SDS011;38480;52.724;6.436;2022-10-22T02:03:46;33.97;;;17.03;;
52586;SDS011;38480;52.724;6.436;2022-10-22T02:06:16;36.63;;;18.53;;
52586;SDS011;38480;52.724;6.436;2022-10-22T02:08:43;35.53;;;17.87;;
52586;SDS011;38480;52.724;6.436;2022-10-22T02:11:10;35.53;;;18.93;;
52586;SDS011;38480;52.724;6.436;2022-10-22T02:13:40;42.17;;;20.93;;
52586;SDS011;38480;52.724;6.436;2022-10-22T02:16:08;40.63;;;21.23;;
52586;SDS011;38480;52.724;6.436;2022-10-22T02:18:36;36.47;;;18.37;;
52586;SDS011;38480;52.724;6.436;2022-10-22T02:21:03;38.43;;;20.10;;
52586;SDS011;38480;52.724;6.436;2022-10-22T02:23:30;33.90;;;18.53;;
52586;SDS011;38480;52.724;6.436;2022-10-22T02:25:59;41.67;;;19.30;;
52586;SDS011;38480;52.724;6.436;2022-10-22T02:28:49;44.47;;;20.37;;
52586;SDS011;38480;52.724;6.436;2022-10-22T02:31:20;48.67;;;22.07;;
52586;SDS011;38480;52.724;6.436;2022-10-22T02:33:49;41.03;;;20.60;;
52586;SDS011;38480;52.724;6.436;2022-10-22T02:36:16;39.97;;;20.37;;
52586;SDS011;38480;52.724;6.436;2022-10-22T02:38:43;54.80;;;23.33;;
52586;SDS011;38480;52.724;6.436;2022-10-22T02:41:10;45.03;;;22.40;;
52586;SDS011;38480;52.724;6.436;2022-10-22T02:43:40;42.17;;;21.47;;
52586;SDS011;38480;52.724;6.436;2022-10-22T02:46:07;44.73;;;22.67;;
52586;SDS011;38480;52.724;6.436;2022-10-22T02:48:33;56.57;;;25.73;;
52586;SDS011;38480;52.724;6.436;2022-10-22T02:50:59;47.17;;;22.63;;
52586;SDS011;38480;52.724;6.436;2022-10-22T02:53:25;44.63;;;23.00;;
52586;SDS011;38480;52.724;6.436;2022-10-22T02:55:52;47.27;;;23.87;;
52586;SDS011;38480;52.724;6.436;2022-10-22T02:58:18;46.17;;;23.13;;
52586;SDS011;38480;52.724;6.436;2022-10-22T03:00:44;57.90;;;26.93;;
52586;SDS011;38480;52.724;6.436;2022-10-22T03:03:10;49.93;;;23.70;;
52586;SDS011;38480;52.724;6.436;2022-10-22T03:05:36;70.17;;;29.93;;
52586;SDS011;38480;52.724;6.436;2022-10-22T03:08:02;52.23;;;24.20;;
52586;SDS011;38480;52.724;6.436;2022-10-22T03:10:28;49.30;;;25.50;;
52586;SDS011;38480;52.724;6.436;2022-10-22T03:12:54;50.10;;;24.13;;
52586;SDS011;38480;52.724;6.436;2022-10-22T03:15:20;47.10;;;22.97;;
52586;SDS011;38480;52.724;6.436;2022-10-22T03:17:46;43.80;;;23.57;;
52586;SDS011;38480;52.724;6.436;2022-10-22T03:20:12;47.10;;;24.00;;
52586;SDS011;38480;52.724;6.436;2022-10-22T03:22:38;48.83;;;24.40;;
52586;SDS011;38480;52.724;6.436;2022-10-22T03:25:06;46.10;;;24.23;;
52586;SDS011;38480;52.724;6.436;2022-10-22T03:27:35;45.10;;;24.37;;
52586;SDS011;38480;52.724;6.436;2022-10-22T03:30:02;47.33;;;24.40;;
52586;SDS011;38480;52.724;6.436;2022-10-22T03:32:28;48.87;;;25.17;;
52586;SDS011;38480;52.724;6.436;2022-10-22T03:34:54;55.47;;;25.97;;
52586;SDS011;38480;52.724;6.436;2022-10-22T03:37:20;47.20;;;25.13;;
52586;SDS011;38480;52.724;6.436;2022-10-22T03:39:47;49.50;;;26.03;;
52586;SDS011;38480;52.724;6.436;2022-10-22T03:42:14;50.20;;;26.53;;
52586;SDS011;38480;52.724;6.436;2022-10-22T03:44:41;42.90;;;23.67;;
52586;SDS011;38480;52.724;6.436;2022-10-22T03:47:07;51.47;;;26.93;;
52586;SDS011;38480;52.724;6.436;2022-10-22T03:49:34;60.87;;;27.13;;
52586;SDS011;38480;52.724;6.436;2022-10-22T03:52:06;56.90;;;27.83;;
52586;SDS011;38480;52.724;6.436;2022-10-22T03:54:33;45.75;;;25.33;;
52586;SDS011;38480;52.724;6.436;2022-10-22T03:57:00;60.57;;;29.73;;
52586;SDS011;38480;52.724;6.436;2022-10-22T03:59:26;55.00;;;28.00;;
52586;SDS011;38480;52.724;6.436;2022-10-22T04:01:52;50.50;;;25.97;;
52586;SDS011;38480;52.724;6.436;2022-10-22T04:04:18;65.23;;;29.40;;
52586;SDS011;38480;52.724;6.436;2022-10-22T04:06:44;55.10;;;26.93;;
52586;SDS011;38480;52.724;6.436;2022-10-22T04:09:10;52.67;;;26.03;;
52586;SDS011;38480;52.724;6.436;2022-10-22T04:11:36;67.80;;;31.13;;
52586;SDS011;38480;52.724;6.436;2022-10-22T04:14:02;70.63;;;29.97;;
52586;SDS011;38480;52.724;6.436;2022-10-22T04:16:28;66.17;;;29.47;;
52586;SDS011;38480;52.724;6.436;2022-10-22T04:18:56;54.23;;;27.63;;
52586;SDS011;38480;52.724;6.436;2022-10-22T04:21:23;48.33;;;26.23;;
52586;SDS011;38480;52.724;6.436;2022-10-22T04:23:49;57.43;;;29.20;;
52586;SDS011;38480;52.724;6.436;2022-10-22T04:26:16;49.27;;;27.17;;
52586;SDS011;38480;52.724;6.436;2022-10-22T04:28:42;64.20;;;29.70;;
52586;SDS011;38480;52.724;6.436;2022-10-22T04:31:09;63.70;;;28.90;;
52586;SDS011;38480;52.724;6.436;2022-10-22T04:33:36;56.00;;;27.67;;
52586;SDS011;38480;52.724;6.436;2022-10-22T04:36:06;88.50;;;35.77;;
52586;SDS011;38480;52.724;6.436;2022-10-22T04:38:32;64.17;;;31.33;;
52586;SDS011;38480;52.724;6.436;2022-10-22T04:41:07;65.40;;;28.97;;
52586;SDS011;38480;52.724;6.436;2022-10-22T04:43:33;76.63;;;33.23;;
52586;SDS011;38480;52.724;6.436;2022-10-22T04:45:59;58.10;;;28.53;;
52586;SDS011;38480;52.724;6.436;2022-10-22T04:48:25;66.40;;;29.93;;
52586;SDS011;38480;52.724;6.436;2022-10-22T04:50:51;56.83;;;28.07;;
52586;SDS011;38480;52.724;6.436;2022-10-22T04:53:17;81.97;;;31.97;;
52586;SDS011;38480;52.724;6.436;2022-10-22T04:55:43;45.10;;;24.43;;
52586;SDS011;38480;52.724;6.436;2022-10-22T04:58:09;57.57;;;27.53;;
52586;SDS011;38480;52.724;6.436;2022-10-22T05:00:35;59.00;;;29.07;;
52586;SDS011;38480;52.724;6.436;2022-10-22T05:03:01;59.90;;;27.47;;
52586;SDS011;38480;52.724;6.436;2022-10-22T05:05:27;50.07;;;26.00;;
52586;SDS011;38480;52.724;6.436;2022-10-22T05:07:53;63.97;;;27.87;;
52586;SDS011;38480;52.724;6.436;2022-10-22T05:10:19;40.40;;;22.83;;
52586;SDS011;38480;52.724;6.436;2022-10-22T05:12:45;52.60;;;26.17;;
52586;SDS011;38480;52.724;6.436;2022-10-22T05:15:11;59.57;;;27.83;;
52586;SDS011;38480;52.724;6.436;2022-10-22T05:17:37;40.10;;;21.80;;
52586;SDS011;38480;52.724;6.436;2022-10-22T05:20:04;33.43;;;20.13;;
52586;SDS011;38480;52.724;6.436;2022-10-22T05:22:30;36.90;;;19.40;;
52586;SDS011;38480;52.724;6.436;2022-10-22T05:24:56;46.87;;;23.67;;
52586;SDS011;38480;52.724;6.436;2022-10-22T05:27:22;39.30;;;21.40;;
52586;SDS011;38480;52.724;6.436;2022-10-22T05:29:49;42.07;;;19.97;;
52586;SDS011;38480;52.724;6.436;2022-10-22T05:32:15;39.07;;;19.43;;
52586;SDS011;38480;52.724;6.436;2022-10-22T05:34:41;32.63;;;17.37;;
52586;SDS011;38480;52.724;6.436;2022-10-22T05:37:07;26.83;;;15.53;;
52586;SDS011;38480;52.724;6.436;2022-10-22T05:39:33;26.67;;;13.53;;
52586;SDS011;38480;52.724;6.436;2022-10-22T05:42:01;32.67;;;15.77;;
52586;SDS011;38480;52.724;6.436;2022-10-22T05:44:27;30.40;;;16.07;;
52586;SDS011;38480;52.724;6.436;2022-10-22T05:46:53;31.60;;;17.10;;
52586;SDS011;38480;52.724;6.436;2022-10-22T05:49:19;32.00;;;16.77;;
52586;SDS011;38480;52.724;6.436;2022-10-22T05:51:45;27.17;;;13.97;;
52586;SDS011;38480;52.724;6.436;2022-10-22T05:54:15;29.90;;;14.03;;
52586;SDS011;38480;52.724;6.436;2022-10-22T05:56:42;23.60;;;12.10;;
52586;SDS011;38480;52.724;6.436;2022-10-22T05:59:09;22.50;;;12.63;;
52586;SDS011;38480;52.724;6.436;2022-10-22T06:01:35;20.00;;;10.87;;
52586;SDS011;38480;52.724;6.436;2022-10-22T06:04:02;23.53;;;12.07;;
52586;SDS011;38480;52.724;6.436;2022-10-22T06:06:30;21.50;;;11.30;;
52586;SDS011;38480;52.724;6.436;2022-10-22T06:09:02;26.97;;;12.17;;
52586;SDS011;38480;52.724;6.436;2022-10-22T06:11:30;26.53;;;11.87;;
52586;SDS011;38480;52.724;6.436;2022-10-22T06:13:56;29.67;;;12.27;;
52586;SDS011;38480;52.724;6.436;2022-10-22T06:16:22;20.27;;;11.40;;
52586;SDS011;38480;52.724;6.436;2022-10-22T06:18:48;22.20;;;12.63;;
52586;SDS011;38480;52.724;6.436;2022-10-22T06:21:14;27.83;;;12.07;;
52586;SDS011;38480;52.724;6.436;2022-10-22T06:23:41;25.67;;;12.83;;
52586;SDS011;38480;52.724;6.436;2022-10-22T06:26:07;26.40;;;11.13;;
52586;SDS011;38480;52.724;6.436;2022-10-22T06:28:34;24.33;;;12.03;;
52586;SDS011;38480;52.724;6.436;2022-10-22T06:31:01;17.70;;;10.00;;
52586;SDS011;38480;52.724;6.436;2022-10-22T06:33:27;21.50;;;11.13;;
52586;SDS011;38480;52.724;6.436;2022-10-22T06:35:53;20.63;;;10.57;;
52586;SDS011;38480;52.724;6.436;2022-10-22T06:38:20;24.87;;;9.67;;
52586;SDS011;38480;52.724;6.436;2022-10-22T06:40:46;19.67;;;10.33;;
52586;SDS011;38480;52.724;6.436;2022-10-22T06:43:12;16.83;;;10.60;;
52586;SDS011;38480;52.724;6.436;2022-10-22T06:45:38;23.87;;;11.57;;
52586;SDS011;38480;52.724;6.436;2022-10-22T06:48:05;23.63;;;11.10;;
52586;SDS011;38480;52.724;6.436;2022-10-22T06:50:32;19.80;;;10.53;;
52586;SDS011;38480;52.724;6.436;2022-10-22T06:52:58;18.63;;;10.60;;
52586;SDS011;38480;52.724;6.436;2022-10-22T06:55:25;19.83;;;10.27;;
52586;SDS011;38480;52.724;6.436;2022-10-22T06:57:51;21.50;;;10.20;;
52586;SDS011;38480;52.724;6.436;2022-10-22T07:00:17;22.60;;;12.27;;
52586;SDS011;38480;52.724;6.436;2022-10-22T07:02:43;24.20;;;10.70;;
52586;SDS011;38480;52.724;6.436;2022-10-22T07:05:09;23.27;;;11.53;;
52586;SDS011;38480;52.724;6.436;2022-10-22T07:07:35;17.17;;;9.40;;
52586;SDS011;38480;52.724;6.436;2022-10-22T07:10:01;19.30;;;10.27;;
52586;SDS011;38480;52.724;6.436;2022-10-22T07:12:27;27.20;;;11.03;;
52586;SDS011;38480;52.724;6.436;2022-10-22T07:14:53;21.47;;;10.17;;
52586;SDS011;38480;52.724;6.436;2022-10-22T07:17:19;19.47;;;11.13;;
52586;SDS011;38480;52.724;6.436;2022-10-22T07:19:45;21.73;;;11.73;;
52586;SDS011;38480;52.724;6.436;2022-10-22T07:22:11;16.50;;;9.63;;
52586;SDS011;38480;52.724;6.436;2022-10-22T07:24:37;19.57;;;10.20;;
52586;SDS011;38480;52.724;6.436;2022-10-22T07:27:03;20.83;;;9.47;;
52586;SDS011;38480;52.724;6.436;2022-10-22T07:29:29;25.50;;;10.13;;
52586;SDS011;38480;52.724;6.436;2022-10-22T07:31:55;21.87;;;9.60;;
52586;SDS011;38480;52.724;6.436;2022-10-22T07:34:21;28.03;;;9.93;;
52586;SDS011;38480;52.724;6.436;2022-10-22T07:36:47;23.53;;;9.60;;
52586;SDS011;38480;52.724;6.436;2022-10-22T07:39:13;18.13;;;9.40;;
52586;SDS011;38480;52.724;6.436;2022-10-22T07:41:39;27.87;;;10.00;;
52586;SDS011;38480;52.724;6.436;2022-10-22T07:44:05;17.97;;;9.60;;
52586;SDS011;38480;52.724;6.436;2022-10-22T07:46:31;20.37;;;9.53;;
52586;SDS011;38480;52.724;6.436;2022-10-22T07:48:59;17.90;;;9.27;;
52586;SDS011;38480;52.724;6.436;2022-10-22T07:51:25;20.20;;;9.80;;
52586;SDS011;38480;52.724;6.436;2022-10-22T07:53:51;17.30;;;9.60;;
52586;SDS011;38480;52.724;6.436;2022-10-22T07:56:17;17.47;;;9.93;;
52586;SDS011;38480;52.724;6.436;2022-10-22T07:58:43;16.40;;;9.60;;
52586;SDS011;38480;52.724;6.436;2022-10-22T08:01:09;29.27;;;11.30;;
52586;SDS011;38480;52.724;6.436;2022-10-22T08:03:35;21.90;;;9.37;;
52586;SDS011;38480;52.724;6.436;2022-10-22T08:06:01;21.93;;;9.23;;
52586;SDS011;38480;52.724;6.436;2022-10-22T08:08:28;19.07;;;9.23;;
52586;SDS011;38480;52.724;6.436;2022-10-22T08:10:54;16.97;;;8.97;;
52586;SDS011;38480;52.724;6.436;2022-10-22T08:13:22;19.17;;;8.80;;
52586;SDS011;38480;52.724;6.436;2022-10-22T08:15:48;21.53;;;9.00;;
52586;SDS011;38480;52.724;6.436;2022-10-22T08:18:14;21.93;;;8.43;;
52586;SDS011;38480;52.724;6.436;2022-10-22T08:20:41;19.37;;;8.53;;
52586;SDS011;38480;52.724;6.436;2022-10-22T08:23:07;17.77;;;8.37;;
52586;SDS011;38480;52.724;6.436;2022-10-22T08:25:33;20.37;;;8.73;;
52586;SDS011;38480;52.724;6.436;2022-10-22T08:27:59;20.80;;;8.27;;
52586;SDS011;38480;52.724;6.436;2022-10-22T08:30:25;27.03;;;9.47;;
52586;SDS011;38480;52.724;6.436;2022-10-22T08:32:53;24.30;;;8.73;;
52586;SDS011;38480;52.724;6.436;2022-10-22T08:35:19;19.93;;;7.73;;
52586;SDS011;38480;52.724;6.436;2022-10-22T08:37:45;15.87;;;6.67;;
52586;SDS011;38480;52.724;6.436;2022-10-22T08:40:17;16.87;;;6.37;;
52586;SDS011;38480;52.724;6.436;2022-10-22T08:45:30;16.10;;;6.33;;
52586;SDS011;38480;52.724;6.436;2022-10-22T08:48:05;13.80;;;5.90;;
52586;SDS011;38480;52.724;6.436;2022-10-22T08:50:36;22.70;;;5.53;;
52586;SDS011;38480;52.724;6.436;2022-10-22T08:53:05;10.73;;;5.20;;
52586;SDS011;38480;52.724;6.436;2022-10-22T08:55:31;10.93;;;5.80;;
52586;SDS011;38480;52.724;6.436;2022-10-22T09:00:40;13.50;;;5.70;;
52586;SDS011;38480;52.724;6.436;2022-10-22T09:03:30;15.13;;;5.90;;
52586;SDS011;38480;52.724;6.436;2022-10-22T09:06:04;16.33;;;5.90;;
52586;SDS011;38480;52.724;6.436;2022-10-22T09:08:31;13.60;;;4.53;;
52586;SDS011;38480;52.724;6.436;2022-10-22T09:11:03;14.27;;;3.57;;
52586;SDS011;38480;52.724;6.436;2022-10-22T09:13:30;16.05;;;4.10;;
52586;SDS011;38480;52.724;6.436;2022-10-22T09:16:00;11.40;;;4.00;;
52586;SDS011;38480;52.724;6.436;2022-10-22T09:18:50;15.03;;;4.40;;
52586;SDS011;38480;52.724;6.436;2022-10-22T09:24:45;9.60;;;3.93;;
52586;SDS011;38480;52.724;6.436;2022-10-22T09:26:51;13.07;;;4.23;;
52586;SDS011;38480;52.724;6.436;2022-10-22T09:29:18;13.07;;;3.60;;
52586;SDS011;38480;52.724;6.436;2022-10-22T09:31:46;14.73;;;4.00;;
52586;SDS011;38480;52.724;6.436;2022-10-22T09:34:13;12.60;;;3.53;;
52586;SDS011;38480;52.724;6.436;2022-10-22T09:36:39;10.47;;;3.07;;
52586;SDS011;38480;52.724;6.436;2022-10-22T09:39:10;14.43;;;3.23;;
52586;SDS011;38480;52.724;6.436;2022-10-22T09:41:46;14.23;;;4.57;;
52586;SDS011;38480;52.724;6.436;2022-10-22T09:44:12;17.07;;;4.17;;
52586;SDS011;38480;52.724;6.436;2022-10-22T09:46:38;14.33;;;4.07;;
52586;SDS011;38480;52.724;6.436;2022-10-22T09:49:12;14.77;;;4.23;;
52586;SDS011;38480;52.724;6.436;2022-10-22T09:51:40;10.30;;;4.40;;
52586;SDS011;38480;52.724;6.436;2022-10-22T09:54:14;10.93;;;3.57;;
52586;SDS011;38480;52.724;6.436;2022-10-22T09:56:41;11.10;;;3.50;;
52586;SDS011;38480;52.724;6.436;2022-10-22T09:59:13;14.10;;;3.50;;
52586;SDS011;38480;52.724;6.436;2022-10-22T10:01:39;12.87;;;4.70;;
52586;SDS011;38480;52.724;6.436;2022-10-22T10:04:07;7.37;;;3.17;;
52586;SDS011;38480;52.724;6.436;2022-10-22T10:06:34;7.67;;;3.10;;
52586;SDS011;38480;52.724;6.436;2022-10-22T10:09:00;14.07;;;3.73;;
52586;SDS011;38480;52.724;6.436;2022-10-22T10:11:36;12.43;;;3.63;;
52586;SDS011;38480;52.724;6.436;2022-10-22T10:14:23;9.57;;;3.60;;
52586;SDS011;38480;52.724;6.436;2022-10-22T10:22:08;8.70;;;3.40;;
52586;SDS011;38480;52.724;6.436;2022-10-22T10:27:27;13.47;;;3.63;;
52586;SDS011;38480;52.724;6.436;2022-10-22T10:30:02;12.67;;;4.27;;
52586;SDS011;38480;52.724;6.436;2022-10-22T10:35:19;13.27;;;3.97;;
52586;SDS011;38480;52.724;6.436;2022-10-22T10:42:49;13.50;;;4.20;;
52586;SDS011;38480;52.724;6.436;2022-10-22T10:50:38;13.57;;;4.90;;
52586;SDS011;38480;52.724;6.436;2022-10-22T10:53:13;11.93;;;5.40;;
52586;SDS011;38480;52.724;6.436;2022-10-22T10:58:24;11.83;;;4.97;;
52586;SDS011;38480;52.724;6.436;2022-10-22T11:00:59;21.43;;;8.07;;
52586;SDS011;38480;52.724;6.436;2022-10-22T11:04:01;11.07;;;5.53;;
52586;SDS011;38480;52.724;6.436;2022-10-22T11:06:20;14.90;;;7.70;;
52586;SDS011;38480;52.724;6.436;2022-10-22T11:08:51;16.87;;;7.90;;
52586;SDS011;38480;52.724;6.436;2022-10-22T11:11:29;17.60;;;8.20;;
52586;SDS011;38480;52.724;6.436;2022-10-22T11:16:48;17.10;;;7.67;;
52586;SDS011;38480;52.724;6.436;2022-10-22T11:21:43;16.00;;;7.87;;
52586;SDS011;38480;52.724;6.436;2022-10-22T11:24:16;13.77;;;7.20;;
52586;SDS011;38480;52.724;6.436;2022-10-22T11:27:00;18.02;;;8.05;;
52586;SDS011;38480;52.724;6.436;2022-10-22T11:29:29;16.48;;;7.60;;
52586;SDS011;38480;52.724;6.436;2022-10-22T11:31:56;14.73;;;6.80;;
52586;SDS011;38480;52.724;6.436;2022-10-22T11:36:51;14.53;;;5.60;;
52586;SDS011;38480;52.724;6.436;2022-10-22T11:39:37;17.80;;;5.40;;
52586;SDS011;38480;52.724;6.436;2022-10-22T11:42:05;13.37;;;5.00;;
52586;SDS011;38480;52.724;6.436;2022-10-22T11:44:33;10.60;;;4.70;;
52586;SDS011;38480;52.724;6.436;2022-10-22T11:47:19;10.37;;;3.93;;
52586;SDS011;38480;52.724;6.436;2022-10-22T11:49:55;9.37;;;4.80;;
52586;SDS011;38480;52.724;6.436;2022-10-22T11:54:58;12.07;;;3.70;;
52586;SDS011;38480;52.724;6.436;2022-10-22T11:57:27;11.17;;;4.20;;
52586;SDS011;38480;52.724;6.436;2022-10-22T11:59:57;12.00;;;3.60;;
52586;SDS011;38480;52.724;6.436;2022-10-22T12:04:54;12.53;;;3.77;;
52586;SDS011;38480;52.724;6.436;2022-10-22T12:07:31;10.03;;;3.57;;
52586;SDS011;38480;52.724;6.436;2022-10-22T12:09:57;9.27;;;3.00;;
52586;SDS011;38480;52.724;6.436;2022-10-22T12:12:23;9.90;;;3.07;;
52586;SDS011;38480;52.724;6.436;2022-10-22T12:17:18;11.03;;;4.03;;
52586;SDS011;38480;52.724;6.436;2022-10-22T12:19:45;10.10;;;2.90;;
52586;SDS011;38480;52.724;6.436;2022-10-22T12:22:17;10.00;;;3.33;;
52586;SDS011;38480;52.724;6.436;2022-10-22T12:24:45;17.53;;;3.13;;
52586;SDS011;38480;52.724;6.436;2022-10-22T12:27:23;9.93;;;2.90;;
52586;SDS011;38480;52.724;6.436;2022-10-22T12:29:53;15.37;;;3.13;;
52586;SDS011;38480;52.724;6.436;2022-10-22T12:32:20;8.57;;;2.87;;
52586;SDS011;38480;52.724;6.436;2022-10-22T12:34:47;17.70;;;3.73;;
52586;SDS011;38480;52.724;6.436;2022-10-22T12:37:14;11.73;;;3.03;;
52586;SDS011;38480;52.724;6.436;2022-10-22T12:39:40;11.60;;;3.47;;
52586;SDS011;38480;52.724;6.436;2022-10-22T12:42:09;14.63;;;2.97;;
52586;SDS011;38480;52.724;6.436;2022-10-22T12:44:37;12.83;;;2.60;;
52586;SDS011;38480;52.724;6.436;2022-10-22T12:47:04;9.53;;;2.80;;
52586;SDS011;38480;52.724;6.436;2022-10-22T12:49:33;10.13;;;2.53;;
52586;SDS011;38480;52.724;6.436;2022-10-22T12:52:04;9.60;;;2.93;;
52586;SDS011;38480;52.724;6.436;2022-10-22T12:54:31;13.17;;;3.50;;
52586;SDS011;38480;52.724;6.436;2022-10-22T12:56:57;12.53;;;3.43;;
52586;SDS011;38480;52.724;6.436;2022-10-22T12:59:25;10.23;;;3.13;;
52586;SDS011;38480;52.724;6.436;2022-10-22T13:01:52;10.80;;;3.07;;
52586;SDS011;38480;52.724;6.436;2022-10-22T13:06:51;11.47;;;2.80;;
52586;SDS011;38480;52.724;6.436;2022-10-22T13:09:35;11.20;;;2.53;;
52586;SDS011;38480;52.724;6.436;2022-10-22T13:12:03;10.27;;;2.77;;
52586;SDS011;38480;52.724;6.436;2022-10-22T13:14:31;8.13;;;2.10;;
52586;SDS011;38480;52.724;6.436;2022-10-22T13:19:37;8.63;;;2.20;;
52586;SDS011;38480;52.724;6.436;2022-10-22T13:22:04;10.90;;;3.13;;
52586;SDS011;38480;52.724;6.436;2022-10-22T13:24:30;8.90;;;2.03;;
52586;SDS011;38480;52.724;6.436;2022-10-22T13:26:56;10.10;;;1.90;;
52586;SDS011;38480;52.724;6.436;2022-10-22T13:29:22;10.83;;;1.77;;
52586;SDS011;38480;52.724;6.436;2022-10-22T13:31:49;10.13;;;2.33;;
52586;SDS011;38480;52.724;6.436;2022-10-22T13:34:17;8.37;;;1.87;;
52586;SDS011;38480;52.724;6.436;2022-10-22T13:36:44;9.07;;;1.90;;
52586;SDS011;38480;52.724;6.436;2022-10-22T13:39:20;6.43;;;1.67;;
52586;SDS011;38480;52.724;6.436;2022-10-22T13:41:46;3.83;;;1.40;;
52586;SDS011;38480;52.724;6.436;2022-10-22T13:44:14;7.27;;;1.73;;
52586;SDS011;38480;52.724;6.436;2022-10-22T13:46:40;6.50;;;1.90;;
52586;SDS011;38480;52.724;6.436;2022-10-22T13:49:14;9.00;;;1.73;;
52586;SDS011;38480;52.724;6.436;2022-10-22T13:51:41;6.83;;;1.97;;
52586;SDS011;38480;52.724;6.436;2022-10-22T13:54:14;9.93;;;1.67;;
52586;SDS011;38480;52.724;6.436;2022-10-22T13:56:41;6.50;;;1.37;;
52586;SDS011;38480;52.724;6.436;2022-10-22T13:59:07;7.80;;;1.33;;
52586;SDS011;38480;52.724;6.436;2022-10-22T14:01:35;7.23;;;1.90;;
52586;SDS011;38480;52.724;6.436;2022-10-22T14:04:02;20.13;;;3.17;;
52586;SDS011;38480;52.724;6.436;2022-10-22T14:06:29;8.27;;;1.80;;
52586;SDS011;38480;52.724;6.436;2022-10-22T14:08:56;8.60;;;1.90;;
52586;SDS011;38480;52.724;6.436;2022-10-22T14:11:23;9.30;;;2.03;;
52586;SDS011;38480;52.724;6.436;2022-10-22T14:13:51;6.33;;;1.80;;
52586;SDS011;38480;52.724;6.436;2022-10-22T14:16:23;8.50;;;2.37;;
52586;SDS011;38480;52.724;6.436;2022-10-22T14:18:50;6.43;;;1.93;;
52586;SDS011;38480;52.724;6.436;2022-10-22T14:21:17;9.87;;;1.93;;
52586;SDS011;38480;52.724;6.436;2022-10-22T14:23:44;14.60;;;2.33;;
52586;SDS011;38480;52.724;6.436;2022-10-22T14:26:21;10.83;;;2.00;;
52586;SDS011;38480;52.724;6.436;2022-10-22T14:28:48;9.70;;;2.00;;
52586;SDS011;38480;52.724;6.436;2022-10-22T14:31:14;6.37;;;1.87;;
52586;SDS011;38480;52.724;6.436;2022-10-22T14:33:40;14.43;;;1.97;;
52586;SDS011;38480;52.724;6.436;2022-10-22T14:36:08;10.63;;;1.90;;
52586;SDS011;38480;52.724;6.436;2022-10-22T14:38:34;8.03;;;1.83;;
52586;SDS011;38480;52.724;6.436;2022-10-22T14:41:00;10.90;;;1.87;;
52586;SDS011;38480;52.724;6.436;2022-10-22T14:43:27;9.27;;;2.53;;
52586;SDS011;38480;52.724;6.436;2022-10-22T14:45:53;26.90;;;2.57;;
52586;SDS011;38480;52.724;6.436;2022-10-22T14:48:19;10.43;;;2.17;;
52586;SDS011;38480;52.724;6.436;2022-10-22T14:50:46;9.00;;;2.53;;
52586;SDS011;38480;52.724;6.436;2022-10-22T14:53:12;13.50;;;2.03;;
52586;SDS011;38480;52.724;6.436;2022-10-22T14:55:39;6.53;;;2.17;;
52586;SDS011;38480;52.724;6.436;2022-10-22T14:58:05;11.80;;;2.23;;
52586;SDS011;38480;52.724;6.436;2022-10-22T15:00:31;9.93;;;1.90;;
52586;SDS011;38480;52.724;6.436;2022-10-22T15:03:00;11.43;;;1.93;;
52586;SDS011;38480;52.724;6.436;2022-10-22T15:05:27;9.77;;;2.00;;
52586;SDS011;38480;52.724;6.436;2022-10-22T15:07:53;10.23;;;2.10;;
52586;SDS011;38480;52.724;6.436;2022-10-22T15:10:19;15.77;;;3.03;;
52586;SDS011;38480;52.724;6.436;2022-10-22T15:12:45;12.37;;;2.83;;
52586;SDS011;38480;52.724;6.436;2022-10-22T15:15:11;8.97;;;2.30;;
52586;SDS011;38480;52.724;6.436;2022-10-22T15:17:37;13.37;;;2.30;;
52586;SDS011;38480;52.724;6.436;2022-10-22T15:20:04;12.80;;;2.47;;
52586;SDS011;38480;52.724;6.436;2022-10-22T15:22:30;15.93;;;2.60;;
52586;SDS011;38480;52.724;6.436;2022-10-22T15:24:59;9.40;;;2.20;;
52586;SDS011;38480;52.724;6.436;2022-10-22T15:27:25;15.00;;;2.83;;
52586;SDS011;38480;52.724;6.436;2022-10-22T15:29:51;12.93;;;2.53;;
52586;SDS011;38480;52.724;6.436;2022-10-22T15:32:17;8.73;;;2.07;;
52586;SDS011;38480;52.724;6.436;2022-10-22T15:34:43;12.70;;;2.77;;
52586;SDS011;38480;52.724;6.436;2022-10-22T15:37:10;15.17;;;2.20;;
52586;SDS011;38480;52.724;6.436;2022-10-22T15:39:38;13.80;;;2.20;;
52586;SDS011;38480;52.724;6.436;2022-10-22T15:42:05;11.60;;;2.40;;
52586;SDS011;38480;52.724;6.436;2022-10-22T15:44:31;7.77;;;2.63;;
52586;SDS011;38480;52.724;6.436;2022-10-22T15:46:57;14.13;;;2.90;;
52586;SDS011;38480;52.724;6.436;2022-10-22T15:49:24;13.20;;;2.30;;